createdAt,value
2022-08-07T00:02:39.630Z,100.00
2022-08-07T00:07:18.852Z,100.00
2022-08-07T00:12:20.858Z,100.00
2022-08-07T00:17:22.646Z,100.00
2022-08-07T00:22:35.626Z,100.00
2022-08-07T00:27:52.440Z,100.00
2022-08-07T00:33:01.269Z,100.00
2022-08-07T00:38:05.501Z,100.00
2022-08-07T00:44:01.467Z,100.00
2022-08-07T00:48:34.097Z,100.00
2022-08-07T00:53:38.903Z,100.00
2022-08-07T00:58:52.687Z,100.00
2022-08-07T01:04:00.350Z,100.00
2022-08-07T01:09:03.960Z,100.00
2022-08-07T01:14:07.233Z,100.00
2022-08-07T01:19:19.238Z,100.00
2022-08-07T01:24:23.697Z,100.00
2022-08-07T01:29:31.513Z,100.00
2022-08-07T01:34:35.691Z,100.00
2022-08-07T01:39:41.489Z,100.00
2022-08-07T01:44:48.884Z,100.00
2022-08-07T01:49:53.620Z,100.00
2022-08-07T01:54:58.977Z,100.00
2022-08-07T02:00:13.391Z,100.00
2022-08-07T02:05:47.475Z,100.00
2022-08-07T02:10:58.514Z,100.00
2022-08-07T02:16:04.151Z,100.00
2022-08-07T02:21:09.360Z,100.00
2022-08-07T02:26:32.698Z,100.00
2022-08-07T02:31:38.737Z,100.00
2022-08-07T02:36:43.754Z,100.00
2022-08-07T02:41:54.374Z,100.00
2022-08-07T02:47:00.899Z,100.00
2022-08-07T02:52:08.868Z,100.00
2022-08-07T02:57:19.223Z,100.00
2022-08-07T03:02:24.226Z,100.00
2022-08-07T03:07:43.248Z,100.00
2022-08-07T03:12:54.236Z,100.00
2022-08-07T03:17:58.345Z,100.00
2022-08-07T03:23:03.056Z,100.00
2022-08-07T03:28:37.508Z,100.00
2022-08-07T03:33:40.069Z,100.00
2022-08-07T03:38:44.640Z,100.00
2022-08-07T03:43:56.786Z,100.00
2022-08-07T03:49:02.021Z,100.00
2022-08-07T03:54:35.171Z,100.00
2022-08-07T03:59:27.605Z,100.00
2022-08-07T04:04:32.748Z,100.00
2022-08-07T04:09:45.126Z,100.00
2022-08-07T04:14:53.510Z,100.00
2022-08-07T04:19:58.081Z,100.00
2022-08-07T04:25:00.977Z,100.00
2022-08-07T04:30:11.856Z,100.00
2022-08-07T04:35:16.133Z,100.00
2022-08-07T04:40:22.722Z,100.00
2022-08-07T04:46:12.430Z,100.00
2022-08-07T04:51:49.296Z,100.00
2022-08-07T04:58:10.237Z,100.00
2022-08-07T05:03:17.333Z,100.00
2022-08-07T05:09:01.352Z,100.00
2022-08-07T05:14:56.445Z,100.00
2022-08-07T05:19:45.331Z,100.00
2022-08-07T05:24:55.537Z,100.00
2022-08-07T05:29:58.825Z,100.00
2022-08-07T05:35:03.299Z,100.00
2022-08-07T05:40:18.267Z,100.00
2022-08-07T05:45:46.093Z,100.00
2022-08-07T05:50:50.566Z,100.00
2022-08-07T05:56:03.701Z,100.00
2022-08-07T06:01:12.011Z,100.00
2022-08-07T06:06:17.322Z,100.00
2022-08-07T06:11:20.855Z,100.00
2022-08-07T06:16:33.277Z,93.70
2022-08-07T06:22:14.500Z,88.61
2022-08-07T06:26:58.154Z,80.48
2022-08-07T06:32:01.601Z,81.60
2022-08-07T06:37:03.622Z,67.29
2022-08-07T06:42:32.979Z,68.46
2022-08-07T06:47:38.663Z,66.72
2022-08-07T06:52:55.886Z,66.44
2022-08-07T06:58:04.271Z,63.56
2022-08-07T07:03:10.818Z,59.15
2022-08-07T07:08:18.866Z,52.79
2022-08-07T07:13:58.224Z,51.05
2022-08-07T07:19:19.007Z,50.63
2022-08-07T07:24:29.479Z,45.90
2022-08-07T07:30:07.410Z,41.14
2022-08-07T07:35:10.005Z,40.51
2022-08-07T07:40:20.954Z,47.14
2022-08-07T07:46:40.151Z,45.03
2022-08-07T07:50:56.314Z,43.32
2022-08-07T07:56:01.299Z,39.23
2022-08-07T08:02:02.341Z,39.43
2022-08-07T08:06:29.515Z,42.62
2022-08-07T08:11:59.707Z,44.55
2022-08-07T08:16:58.137Z,39.19
2022-08-07T08:22:56.051Z,37.07
2022-08-07T08:28:04.181Z,37.15
2022-08-07T08:33:10.339Z,37.74
2022-08-07T08:38:29.528Z,35.65
2022-08-07T08:43:58.969Z,34.52
2022-08-07T08:49:46.400Z,33.37
2022-08-07T08:55:54.303Z,30.89
2022-08-07T09:01:29.794Z,31.51
2022-08-07T09:07:57.452Z,29.78
2022-08-07T09:13:37.171Z,35.72
2022-08-07T09:19:53.055Z,39.75
2022-08-07T09:25:21.606Z,34.94
2022-08-07T09:31:13.417Z,30.11
2022-08-07T09:36:46.823Z,28.26
2022-08-07T09:42:33.279Z,27.61
2022-08-07T09:48:01.198Z,27.61
2022-08-07T09:53:12.502Z,25.64
2022-08-07T09:58:57.471Z,26.38
2022-08-07T10:04:55.072Z,27.05
2022-08-07T10:11:59.830Z,29.39
2022-08-07T10:18:00.719Z,32.77
2022-08-07T10:24:05.621Z,36.70
2022-08-07T10:29:45.613Z,37.32
2022-08-07T10:35:10.629Z,41.86
2022-08-07T10:40:45.105Z,39.58
2022-08-07T10:46:00.069Z,39.32
2022-08-07T10:51:39.274Z,39.02
2022-08-07T10:57:36.983Z,38.18
2022-08-07T11:03:17.108Z,37.78
2022-08-07T11:08:54.643Z,38.88
2022-08-07T11:14:45.310Z,38.95
2022-08-07T11:20:24.404Z,38.27
2022-08-07T11:25:42.542Z,37.81
2022-08-07T11:30:54.436Z,37.05
2022-08-07T11:36:33.376Z,39.02
2022-08-07T11:42:03.159Z,38.11
2022-08-07T11:48:02.109Z,40.16
2022-08-07T11:53:43.254Z,38.65
2022-08-07T12:00:11.440Z,38.56
2022-08-07T12:05:41.375Z,37.71
2022-08-07T12:11:20.500Z,37.99
2022-08-07T12:16:35.190Z,36.86
2022-08-07T12:22:39.415Z,36.95
2022-08-07T12:28:09.373Z,37.89
2022-08-07T12:33:28.223Z,36.84
2022-08-07T12:38:43.092Z,37.21
2022-08-07T12:44:04.381Z,38.28
2022-08-07T12:49:39.794Z,46.63
2022-08-07T12:55:16.503Z,40.02
2022-08-07T13:00:50.369Z,41.51
2022-08-07T13:07:01.316Z,38.00
2022-08-07T13:12:32.908Z,38.74
2022-08-07T13:18:03.945Z,38.89
2022-08-07T13:24:00.553Z,39.79
2022-08-07T13:29:48.445Z,39.78
2022-08-07T13:35:21.132Z,37.84
2022-08-07T13:40:42.259Z,38.32
2022-08-07T13:46:12.188Z,37.89
2022-08-07T13:51:28.303Z,38.01
2022-08-07T13:56:51.732Z,38.48
2022-08-07T14:02:10.611Z,37.89
2022-08-07T14:07:17.495Z,37.32
2022-08-07T14:12:41.942Z,37.99
2022-08-07T14:18:23.396Z,38.18
2022-08-07T14:23:59.324Z,38.70
2022-08-07T14:28:57.425Z,38.64
2022-08-07T14:34:07.295Z,39.24
2022-08-07T14:39:12.557Z,38.58
2022-08-07T14:44:34.042Z,38.32
2022-08-07T14:55:02.713Z,38.19
2022-08-07T15:00:08.596Z,38.37
2022-08-07T15:10:58.656Z,37.91
2022-08-07T15:16:11.450Z,38.64
2022-08-07T15:21:59.519Z,39.97
2022-08-07T15:27:03.810Z,39.98
2022-08-07T15:32:12.448Z,40.07
2022-08-07T15:42:43.261Z,42.71
2022-08-07T15:48:12.970Z,40.17
2022-08-07T15:53:54.823Z,41.16
2022-08-07T15:59:16.304Z,41.38
2022-08-07T16:04:21.200Z,40.49
2022-08-07T16:09:52.286Z,39.50
2022-08-07T16:15:10.496Z,40.49
2022-08-07T16:22:04.955Z,40.21
2022-08-07T16:27:00.071Z,41.28
2022-08-07T16:32:35.381Z,40.62
2022-08-07T16:38:05.922Z,39.71
2022-08-07T16:44:02.785Z,40.02
2022-08-07T16:50:35.925Z,40.43
2022-08-07T16:55:55.434Z,40.67
2022-08-07T17:01:34.465Z,43.94
2022-08-07T17:07:03.344Z,42.82
2022-08-07T17:12:34.244Z,43.68
2022-08-07T17:17:57.580Z,43.88
2022-08-07T17:23:32.389Z,44.31
2022-08-07T17:28:52.249Z,45.15
2022-08-07T17:34:34.879Z,45.15
2022-08-07T17:40:11.118Z,46.94
2022-08-07T17:45:32.054Z,49.37
2022-08-07T17:51:09.566Z,52.07
2022-08-07T17:56:34.800Z,51.03
2022-08-07T18:01:56.916Z,51.96
2022-08-07T18:07:52.105Z,52.71
2022-08-07T18:13:41.452Z,53.77
2022-08-07T18:21:08.112Z,55.00
2022-08-07T18:24:36.176Z,56.02
2022-08-07T18:30:30.841Z,55.38
2022-08-07T18:35:55.820Z,56.31
2022-08-07T18:41:46.322Z,57.79
2022-08-07T18:47:44.505Z,62.30
2022-08-07T18:53:36.827Z,63.36
2022-08-07T18:59:47.041Z,62.30
2022-08-07T19:05:15.786Z,61.51
2022-08-07T19:10:31.322Z,62.43
2022-08-07T19:16:03.381Z,63.27
2022-08-07T19:21:34.709Z,64.66
2022-08-07T19:28:29.920Z,66.27
2022-08-07T19:32:42.291Z,65.65
2022-08-07T19:37:57.623Z,65.05
2022-08-07T19:43:08.092Z,66.42
2022-08-07T19:48:18.976Z,68.18
2022-08-07T19:54:33.108Z,70.18
2022-08-07T19:58:53.060Z,71.37
2022-08-07T20:03:57.688Z,74.91
2022-08-07T20:09:01.814Z,75.03
2022-08-07T20:14:07.146Z,76.86
2022-08-07T20:19:21.410Z,76.08
2022-08-07T20:29:48.374Z,77.19
2022-08-07T20:35:27.268Z,78.26
2022-08-07T20:40:37.489Z,79.23
2022-08-07T20:46:26.657Z,81.04
2022-08-07T20:51:12.872Z,85.31
2022-08-07T20:56:20.153Z,83.91
2022-08-07T21:01:45.806Z,84.39
2022-08-07T21:07:03.959Z,85.50
2022-08-07T21:12:15.074Z,86.17
2022-08-07T21:18:03.986Z,85.64
2022-08-07T21:22:54.361Z,86.21
2022-08-07T21:28:19.026Z,87.70
2022-08-07T21:33:54.658Z,88.64
2022-08-07T21:39:47.915Z,89.72
2022-08-07T21:46:05.063Z,91.47
2022-08-07T21:51:27.498Z,90.80
2022-08-07T21:56:51.939Z,93.03
2022-08-07T22:02:10.123Z,91.77
2022-08-07T22:07:31.878Z,91.92
2022-08-07T22:13:01.190Z,94.51
2022-08-07T22:18:42.041Z,95.01
2022-08-07T22:24:15.677Z,94.40
2022-08-07T22:29:49.652Z,95.32
2022-08-07T22:34:58.318Z,94.90
2022-08-07T22:40:33.807Z,95.37
2022-08-07T22:47:02.329Z,94.79
2022-08-07T22:52:37.759Z,95.92
2022-08-07T22:58:05.482Z,96.99
2022-08-07T23:04:07.928Z,97.81
2022-08-07T23:10:00.868Z,97.76
2022-08-07T23:16:05.824Z,98.05
2022-08-07T23:21:30.315Z,99.91
2022-08-07T23:27:35.719Z,100.00
2022-08-07T23:34:36.091Z,100.00
2022-08-07T23:39:40.788Z,100.00
2022-08-07T23:44:58.056Z,100.00
2022-08-07T23:50:20.823Z,100.00
2022-08-07T23:56:11.965Z,100.00
